Delmar, New York
Current Conditions -  °F | °C
As of 8:51 PM on Wednesday 26 Nov 2014 (Local Time) from KALB Reporting Station
Light Snow Light Snow  
Wind Chill: 24°   Ceiling: 600
Heat Index: 32°   Visibility: 1.5mi
Dew Point: 29°   Wind: 9mph
Humidity: 88%   Direction: 350°N
Pressure: 29.93"   Gusts: NA
Location:  42.62°N, 73.84°W
Report Text: KALB 270151Z 35008KT 1 1/2SM -SN BR BKN006 OVC014 00/M02 A2993 RMK AO2 SFC VIS 2 SLP138 P0004 T00001017
Loading
Personal Weather Stations






























Interactive Weather Map New forecast layout! Learn more

10-Day Weather Forecast

Advertisements
Track Severe Weather on mobile